Home > Products > Valid Products > MTR

000
SAUS44 KMAF 260454
MTR6R6
METAR K6R6 260453Z AUTO VRB05KT 21/M02 A2989 RMK AO1 SLP084
T02061022





000
SAUS44 KMAF 260354
MTR6R6
METAR K6R6 260353Z AUTO 28008KT 23/M04 A2986 RMK AO1 SLP074
T02281039





000
SAUS44 KMAF 260254
MTR6R6
METAR K6R6 260253Z AUTO 28011KT 24/M05 A2983 RMK AO1 SLP067
T02441050 53016





000
SAUS44 KMAF 260154
MTR6R6
METAR K6R6 260153Z AUTO 27010KT 28/M06 A2981 RMK AO1 SLP059
T02831061





000
SAUS44 KMAF 260154
MTR6R6
METAR K6R6 260153Z AUTO 27010KT 28/M06 A2981 RMK AO1 SLP059
T02831061





000
SAUS44 KMAF 260054
MTR6R6
METAR K6R6 260053Z AUTO 27016G21KT 33/M08 A2980 RMK AO1 SLP050
T03281083





000
SAUS44 KMAF 260054
MTR6R6
METAR K6R6 260053Z AUTO 27016G21KT 33/M08 A2980 RMK AO1 SLP050
T03281083





000
SAUS44 KMAF 252354
MTR6R6
METAR K6R6 252353Z AUTO 26013G18KT 34/M09 A2978 RMK AO1 SLP046
T03391089 10350 20328 56010





000
SAUS44 KMAF 252354
MTR6R6
METAR K6R6 252353Z AUTO 26013G18KT 34/M09 A2978 RMK AO1 SLP046
T03391089 10350 20328 56010





000
SAUS44 KMAF 252254
MTR6R6
METAR K6R6 252253Z AUTO 24015G24KT 34/M09 A2979 RMK AO1 PK WND
28030/2241 SLP047 T03441094





000
SAUS44 KMAF 252154
MTR6R6
METAR K6R6 252153Z AUTO 26015G23KT 34/M10 A2980 RMK AO1 PK WND
30029/2100 SLP052 T03441100





000
SAUS44 KMAF 252054
MTR6R6
METAR K6R6 252053Z AUTO 24010G23KT 34/M08 A2982 RMK AO1 PK WND
28028/2041 SLP057 T03441078 58015





000
SAUS44 KMAF 251954
MTR6R6
METAR K6R6 251953Z AUTO 23015G22KT 34/M08 A2984 RMK AO1 PK WND
23027/1859 SLP063 T03391078





000
SAUS44 KMAF 251854
MTR6R6
METAR K6R6 251853Z AUTO 26013G23KT 33/M07 A2986 RMK AO1 PK WND
24026/1827 SLP071 T03331072





000
SAUS44 KMAF 251854
MTR6R6
METAR K6R6 251853Z AUTO 26013G23KT 33/M07 A2986 RMK AO1 PK WND
24026/1827 SLP071 T03331072





000
SAUS44 KMAF 251754
MTR6R6
METAR K6R6 251753Z AUTO 24014G24KT 34/M07 A2987 RMK AO1 SLP073
T03391072 10339 20222 50002





000
SAUS44 KMAF 251655
MTR6R6
METAR K6R6 251653Z AUTO 28013G21KT 32/M01 A2987 RMK AO1 WSHFT 1607
SLP074 T03221011





000
SAUS44 KMAF 251655
MTR6R6
METAR K6R6 251653Z AUTO 28013G21KT 32/M01 A2987 RMK AO1 WSHFT 1607
SLP074 T03221011





000
SAUS44 KMAF 251628
MTR6R6
SPECI K6R6 251627Z AUTO 28013G21KT 31/02 A2987 RMK AO1 WSHFT 1607
T03110022





000
SAUS44 KMAF 251554
MTR6R6
METAR K6R6 251553Z AUTO 19008KT 28/16 A2987 RMK AO1 SLP077 T02830161





000
SAUS44 KMAF 251454
MTR6R6
METAR K6R6 251453Z AUTO 23009KT 26/18 A2986 RMK AO1 SLP074 T02610178
51015





000
SAUS44 KMAF 251354
MTR6R6
METAR K6R6 251353Z AUTO 21010KT 23/20 A2985 RMK AO1 SLP071 T02330200





000
SAUS44 KMAF 251254
MTR6R6
METAR K6R6 251253Z AUTO 18008KT 23/21 A2984 RMK AO1 SLP067 T02280206





000
SAUS44 KMAF 251154
MTR6R6
METAR K6R6 251153Z AUTO 19005KT 22/21 A2981 RMK AO1 SLP057 T02220206
10233 20217 53008





000
SAUS44 KMAF 251154
MTR6R6
METAR K6R6 251153Z AUTO 19005KT 22/21 A2981 RMK AO1 SLP057 T02220206
10233 20217 53008





000
SAUS44 KMAF 251054
MTR6R6
METAR K6R6 251053Z AUTO 15006KT 22/21 A2979 RMK AO1 SLP051 T02220206





000
SAUS44 KMAF 251054
MTR6R6
METAR K6R6 251053Z AUTO 15006KT 22/21 A2979 RMK AO1 SLP051 T02220206





000
SAUS44 KMAF 250954
MTR6R6
METAR K6R6 250953Z AUTO 14007KT 100V170 22/20 A2979 RMK AO1 SLP048
T02220200





000
SAUS44 KMAF 250954
MTR6R6
METAR K6R6 250953Z AUTO 14007KT 100V170 22/20 A2979 RMK AO1 SLP048
T02220200





000
SAUS44 KMAF 250854
MTR6R6
METAR K6R6 250853Z AUTO 00000KT 22/18 A2978 RMK AO1 SLP047 T02220183
56013





000
SAUS44 KMAF 250754
MTR6R6
METAR K6R6 250753Z AUTO VRB04KT 22/17 A2979 RMK AO1 SLP051 T02220172





000
SAUS44 KMAF 250654
MTR6R6
METAR K6R6 250653Z AUTO VRB03KT 22/16 A2981 RMK AO1 SLP056 T02220161





000
SAUS44 KMAF 250554
MTR6R6
METAR K6R6 250553Z AUTO VRB04KT 23/14 A2982 RMK AO1 SLP061 T02330144
10328 20233 403330172 50002





000
SAUS44 KMAF 250454
MTR6R6
METAR K6R6 250453Z AUTO 14008KT 24/14 A2983 RMK AO1 SLP065 T02390144





000
SAUS44 KMAF 250358 COR
MTRGDP
METAR KGDP 250351Z AUTO 26008KT 10SM CLR 18/M08 A2997 RMK AO2 SLP082
T01781083





000
SAUS44 KMAF 250354
MTR6R6
METAR K6R6 250353Z AUTO 14007KT 110V170 25/13 A2983 RMK AO1 SLP064
T02500133





000
SAUS44 KMAF 241959 COR
MTR6R6
METAR K6R6 241953Z AUTO 21011G22KT 32/M02 A2984 RMK AO1 SLP070
T03221017





000
SAUS44 KMAF 241959 COR
MTR6R6
METAR K6R6 241953Z AUTO 21011G22KT 32/M02 A2984 RMK AO1 SLP070
T03221017





000
SAUS44 KMAF 240455
MTR6R6
METAR K6R6 240453Z AUTO 31007KT 19/17 A2987 RMK AO1 SLP082 T01890167





000
SAUS44 KMAF 240354
MTR6R6
METAR K6R6 240353Z AUTO 16006KT 21/16 A2988 RMK AO1 SLP084 T02060161





000
SAUS44 KMAF 240254
MTR6R6
METAR K6R6 240253Z AUTO 14007G17KT 22/16 A2987 RMK AO1 SLP083
T02220156 55002





000
SAUS44 KMAF 240154
MTR6R6
METAR K6R6 240153Z AUTO 00000KT 22/14 A2983 RMK AO1 SLP070 T02220144





000
SAUS44 KMAF 240054
MTR6R6
METAR K6R6 240053Z AUTO 27007KT 25/13 A2988 RMK AO1 SLP086 T02500128





000
SAUS44 KMAF 232354
MTR6R6
METAR K6R6 232353Z AUTO 26013G21KT 27/14 A2988 RMK AO1 PRESRR SLP085
T02670139 10278 20233 55013





000
SAUS44 KMAF 232354
MTR6R6
METAR K6R6 232353Z AUTO 26013G21KT 27/14 A2988 RMK AO1 PRESRR SLP085
T02670139 10278 20233 55013





000
SAUS44 KMAF 232254
MTR6R6
METAR K6R6 232253Z AUTO 17013KT 26/14 A2983 RMK AO1 SLP068 T02610144





000
SAUS44 KMAF 232254
MTR6R6
METAR K6R6 232253Z AUTO 17013KT 26/14 A2983 RMK AO1 SLP068 T02610144





000
SAUS44 KMAF 232154
MTR6R6
METAR K6R6 232153Z AUTO 15014G22KT 27/14 A2986 RMK AO1 SLP076
T02720144





000
SAUS44 KMAF 232054
MTR6R6
METAR K6R6 232053Z AUTO 18014G20KT 24/14 A2992 RMK AO1 SLP099
T02440139 58022





000
SAUS44 KMAF 232054
MTR6R6
METAR K6R6 232053Z AUTO 18014G20KT 24/14 A2992 RMK AO1 SLP099
T02440139 58022





000
SAUS44 KMAF 231954
MTR6R6
METAR K6R6 231953Z AUTO 20010KT 24/14 A2995 RMK AO1 PK WND
20028/1854 SLP109 T02390139





000
SAUS44 KMAF 231854
MTR6R6
METAR K6R6 231853Z AUTO 20023G29KT 27/14 A2998 RMK AO1 PK WND
20032/1838 SLP118 T02670144





000
SAUS44 KMAF 231854
MTR6R6
METAR K6R6 231853Z AUTO 20023G29KT 27/14 A2998 RMK AO1 PK WND
20032/1838 SLP118 T02670144





000
SAUS44 KMAF 231754
MTR6R6
METAR K6R6 231753Z AUTO 17010G20KT 27/20 A2999 RMK AO1 SLP120
T02720200 10278 20217 55009





000
SAUS44 KMAF 231754
MTR6R6
METAR K6R6 231753Z AUTO 17010G20KT 27/20 A2999 RMK AO1 SLP120
T02720200 10278 20217 55009





000
SAUS44 KMAF 231654
MTR6R6
METAR K6R6 231653Z AUTO 17008KT 27/19 A2999 RMK AO1 SLP119 T02720189





000
SAUS44 KMAF 231554
MTR6R6
METAR K6R6 231553Z AUTO 17009KT 27/19 A3000 RMK AO1 SLP124 T02670194





000
SAUS44 KMAF 231454
MTR6R6
METAR K6R6 231453Z AUTO 17013G19KT 26/21 A3002 RMK AO1 SLP132
T02560206 53010





000
SAUS44 KMAF 231354
MTR6R6
METAR K6R6 231353Z AUTO 17009G19KT 23/21 A3001 RMK AO1 SLP129
T02330206





000
SAUS44 KMAF 231254
MTR6R6
METAR K6R6 231253Z AUTO 15009KT 22/21 A3000 RMK AO1 SLP126 T02220206





000
SAUS44 KMAF 231254
MTR6R6
METAR K6R6 231253Z AUTO 15009KT 22/21 A3000 RMK AO1 SLP126 T02220206





000
SAUS44 KMAF 231154
MTR6R6
METAR K6R6 231153Z AUTO 00000KT 22/19 A2999 RMK AO1 SLP123 T02170194
10250 20217 53014





000
SAUS44 KMAF 231154
MTR6R6
METAR K6R6 231153Z AUTO 00000KT 22/19 A2999 RMK AO1 SLP123 T02170194
10250 20217 53014





000
SAUS44 KMAF 231054
MTR6R6
METAR K6R6 231053Z AUTO 20008KT 22/19 A2993 RMK AO1 SLP104 T02220189





000
SAUS44 KMAF 231054
MTR6R6
METAR K6R6 231053Z AUTO 20008KT 22/19 A2993 RMK AO1 SLP104 T02220189





000
SAUS44 KMAF 230954
MTR6R6
METAR K6R6 230953Z AUTO 20011KT 22/16 A2994 RMK AO1 SLP103 T02220161





000
SAUS44 KMAF 230854
MTR6R6
METAR K6R6 230853Z AUTO 20017G22KT 24/14 A2994 RMK AO1 PK WND
18029/0801 SLP105 T02390144 55013





000
SAUS44 KMAF 230754
MTR6R6
METAR K6R6 230753Z AUTO 18019G24KT 24/16 A2994 RMK AO1 SLP104
T02440156





000
SAUS44 KMAF 230754
MTR6R6
METAR K6R6 230753Z AUTO 18019G24KT 24/16 A2994 RMK AO1 SLP104
T02440156





000
SAUS44 KMAF 230654
MTR6R6
METAR K6R6 230653Z AUTO 20011G17KT 24/19 A2996 RMK AO1 SLP111
T02390189





000
SAUS44 KMAF 230626 COR
MTRGDP
SPECI KGDP 230621Z AUTO 06016KT 2SM BR OVC002 16/16 A3006 RMK AO2
T01560156 $





    US Dept of Commerce
    National Oceanic and Atmospheric Administration
    National Weather Service
    1325 East West Highway
    Silver Spring, MD 20910
    Page Author: NWS Internet Services Team
Disclaimer
Information Quality
Credits
Glossary
Privacy Policy
Freedom of Information Act (FOIA)
About Us
Career Opportunities